sensor_id;sensor_type;location;lat;lon;timestamp;P1;durP1;ratioP1;P2;durP2;ratioP2
75554;SDS011;66087;53.126;17.960;2023-04-03T00:00:16;5.90;;;1.20;;
75554;SDS011;66087;53.126;17.960;2023-04-03T00:03:03;5.00;;;1.50;;
75554;SDS011;66087;53.126;17.960;2023-04-03T00:05:30;3.20;;;1.00;;
75554;SDS011;66087;53.126;17.960;2023-04-03T00:07:57;6.60;;;0.90;;
75554;SDS011;66087;53.126;17.960;2023-04-03T00:10:23;4.60;;;1.00;;
75554;SDS011;66087;53.126;17.960;2023-04-03T00:12:50;5.10;;;0.90;;
75554;SDS011;66087;53.126;17.960;2023-04-03T00:15:17;5.80;;;1.50;;
75554;SDS011;66087;53.126;17.960;2023-04-03T00:17:44;4.70;;;0.70;;
75554;SDS011;66087;53.126;17.960;2023-04-03T00:20:10;3.80;;;0.90;;
75554;SDS011;66087;53.126;17.960;2023-04-03T00:22:37;5.60;;;0.90;;
75554;SDS011;66087;53.126;17.960;2023-04-03T00:25:04;4.20;;;1.10;;
75554;SDS011;66087;53.126;17.960;2023-04-03T00:27:31;5.30;;;0.90;;
75554;SDS011;66087;53.126;17.960;2023-04-03T00:29:58;5.00;;;1.00;;
75554;SDS011;66087;53.126;17.960;2023-04-03T00:32:24;2.20;;;1.00;;
75554;SDS011;66087;53.126;17.960;2023-04-03T00:34:51;3.50;;;1.00;;
75554;SDS011;66087;53.126;17.960;2023-04-03T00:37:18;5.80;;;1.00;;
75554;SDS011;66087;53.126;17.960;2023-04-03T00:39:44;3.60;;;1.00;;
75554;SDS011;66087;53.126;17.960;2023-04-03T00:42:11;4.20;;;1.00;;
75554;SDS011;66087;53.126;17.960;2023-04-03T00:47:45;4.30;;;1.10;;
75554;SDS011;66087;53.126;17.960;2023-04-03T00:50:12;5.10;;;1.10;;
75554;SDS011;66087;53.126;17.960;2023-04-03T00:52:38;4.50;;;1.70;;
75554;SDS011;66087;53.126;17.960;2023-04-03T00:55:06;3.50;;;0.80;;
75554;SDS011;66087;53.126;17.960;2023-04-03T00:57:34;4.70;;;1.10;;
75554;SDS011;66087;53.126;17.960;2023-04-03T01:00:05;4.70;;;0.80;;
75554;SDS011;66087;53.126;17.960;2023-04-03T01:02:37;4.90;;;0.90;;
75554;SDS011;66087;53.126;17.960;2023-04-03T01:05:07;5.30;;;1.30;;
75554;SDS011;66087;53.126;17.960;2023-04-03T01:07:36;8.10;;;1.20;;
75554;SDS011;66087;53.126;17.960;2023-04-03T01:10:06;5.10;;;1.00;;
75554;SDS011;66087;53.126;17.960;2023-04-03T01:12:37;4.80;;;1.10;;
75554;SDS011;66087;53.126;17.960;2023-04-03T01:17:52;4.50;;;1.00;;
75554;SDS011;66087;53.126;17.960;2023-04-03T01:26:10;4.80;;;0.80;;
75554;SDS011;66087;53.126;17.960;2023-04-03T01:28:38;4.10;;;1.00;;
75554;SDS011;66087;53.126;17.960;2023-04-03T01:33:51;5.30;;;0.80;;
75554;SDS011;66087;53.126;17.960;2023-04-03T01:36:21;5.10;;;0.90;;
75554;SDS011;66087;53.126;17.960;2023-04-03T01:38:54;4.60;;;0.90;;
75554;SDS011;66087;53.126;17.960;2023-04-03T01:41:23;4.00;;;0.60;;
75554;SDS011;66087;53.126;17.960;2023-04-03T01:43:51;4.60;;;0.90;;
75554;SDS011;66087;53.126;17.960;2023-04-03T01:46:18;5.40;;;0.90;;
75554;SDS011;66087;53.126;17.960;2023-04-03T01:48:46;5.60;;;1.10;;
75554;SDS011;66087;53.126;17.960;2023-04-03T01:51:14;4.30;;;0.70;;
75554;SDS011;66087;53.126;17.960;2023-04-03T01:53:41;7.30;;;1.10;;
75554;SDS011;66087;53.126;17.960;2023-04-03T01:56:08;4.50;;;1.20;;
75554;SDS011;66087;53.126;17.960;2023-04-03T01:58:35;4.80;;;1.30;;
75554;SDS011;66087;53.126;17.960;2023-04-03T02:01:02;3.10;;;1.00;;
75554;SDS011;66087;53.126;17.960;2023-04-03T02:03:29;3.50;;;0.80;;
75554;SDS011;66087;53.126;17.960;2023-04-03T02:05:57;3.40;;;0.70;;
75554;SDS011;66087;53.126;17.960;2023-04-03T02:08:23;4.60;;;1.20;;
75554;SDS011;66087;53.126;17.960;2023-04-03T02:10:50;5.80;;;0.90;;
75554;SDS011;66087;53.126;17.960;2023-04-03T02:13:17;9.20;;;1.00;;
75554;SDS011;66087;53.126;17.960;2023-04-03T02:15:45;4.40;;;0.80;;
75554;SDS011;66087;53.126;17.960;2023-04-03T02:18:12;3.20;;;1.00;;
75554;SDS011;66087;53.126;17.960;2023-04-03T02:20:41;6.00;;;1.60;;
75554;SDS011;66087;53.126;17.960;2023-04-03T02:23:08;6.80;;;1.00;;
75554;SDS011;66087;53.126;17.960;2023-04-03T02:25:35;3.90;;;1.10;;
75554;SDS011;66087;53.126;17.960;2023-04-03T02:28:02;4.70;;;1.10;;
75554;SDS011;66087;53.126;17.960;2023-04-03T02:30:31;5.20;;;1.10;;
75554;SDS011;66087;53.126;17.960;2023-04-03T02:32:57;4.70;;;1.10;;
75554;SDS011;66087;53.126;17.960;2023-04-03T02:35:25;6.10;;;1.00;;
75554;SDS011;66087;53.126;17.960;2023-04-03T02:37:52;6.10;;;1.10;;
75554;SDS011;66087;53.126;17.960;2023-04-03T02:40:19;3.90;;;0.70;;
75554;SDS011;66087;53.126;17.960;2023-04-03T02:42:46;5.70;;;1.30;;
75554;SDS011;66087;53.126;17.960;2023-04-03T02:45:12;4.40;;;1.00;;
75554;SDS011;66087;53.126;17.960;2023-04-03T02:47:39;6.10;;;1.00;;
75554;SDS011;66087;53.126;17.960;2023-04-03T02:50:06;8.10;;;1.50;;
75554;SDS011;66087;53.126;17.960;2023-04-03T02:52:33;4.00;;;1.10;;
75554;SDS011;66087;53.126;17.960;2023-04-03T02:55:01;4.50;;;0.80;;
75554;SDS011;66087;53.126;17.960;2023-04-03T02:57:28;3.50;;;1.40;;
75554;SDS011;66087;53.126;17.960;2023-04-03T02:59:54;4.30;;;0.80;;
75554;SDS011;66087;53.126;17.960;2023-04-03T03:02:21;7.70;;;1.20;;
75554;SDS011;66087;53.126;17.960;2023-04-03T03:04:47;5.10;;;1.20;;
75554;SDS011;66087;53.126;17.960;2023-04-03T03:07:14;6.50;;;1.10;;
75554;SDS011;66087;53.126;17.960;2023-04-03T03:09:41;5.50;;;1.70;;
75554;SDS011;66087;53.126;17.960;2023-04-03T03:12:07;6.20;;;1.40;;
75554;SDS011;66087;53.126;17.960;2023-04-03T03:14:34;4.90;;;1.30;;
75554;SDS011;66087;53.126;17.960;2023-04-03T03:17:00;5.80;;;1.70;;
75554;SDS011;66087;53.126;17.960;2023-04-03T03:19:27;4.50;;;0.80;;
75554;SDS011;66087;53.126;17.960;2023-04-03T03:21:54;6.80;;;1.30;;
75554;SDS011;66087;53.126;17.960;2023-04-03T03:24:22;7.30;;;1.10;;
75554;SDS011;66087;53.126;17.960;2023-04-03T03:26:49;6.80;;;1.90;;
75554;SDS011;66087;53.126;17.960;2023-04-03T03:29:15;3.10;;;0.70;;
75554;SDS011;66087;53.126;17.960;2023-04-03T03:31:42;5.40;;;1.00;;
75554;SDS011;66087;53.126;17.960;2023-04-03T03:34:09;6.20;;;1.60;;
75554;SDS011;66087;53.126;17.960;2023-04-03T03:36:36;2.40;;;0.70;;
75554;SDS011;66087;53.126;17.960;2023-04-03T03:39:03;4.90;;;1.90;;
75554;SDS011;66087;53.126;17.960;2023-04-03T03:41:31;4.20;;;1.00;;
75554;SDS011;66087;53.126;17.960;2023-04-03T03:43:58;4.90;;;1.30;;
75554;SDS011;66087;53.126;17.960;2023-04-03T03:46:26;3.20;;;1.30;;
75554;SDS011;66087;53.126;17.960;2023-04-03T03:48:53;5.90;;;1.10;;
75554;SDS011;66087;53.126;17.960;2023-04-03T03:51:20;5.60;;;1.90;;
75554;SDS011;66087;53.126;17.960;2023-04-03T03:53:46;6.50;;;1.70;;
75554;SDS011;66087;53.126;17.960;2023-04-03T03:56:15;6.80;;;1.90;;
75554;SDS011;66087;53.126;17.960;2023-04-03T03:58:42;4.80;;;1.20;;
75554;SDS011;66087;53.126;17.960;2023-04-03T04:01:08;4.10;;;1.10;;
75554;SDS011;66087;53.126;17.960;2023-04-03T04:03:41;4.70;;;1.10;;
75554;SDS011;66087;53.126;17.960;2023-04-03T04:06:08;4.80;;;1.10;;
75554;SDS011;66087;53.126;17.960;2023-04-03T04:08:36;7.60;;;1.30;;
75554;SDS011;66087;53.126;17.960;2023-04-03T04:11:05;4.20;;;1.10;;
75554;SDS011;66087;53.126;17.960;2023-04-03T04:13:32;6.30;;;1.10;;
75554;SDS011;66087;53.126;17.960;2023-04-03T04:16:00;8.10;;;1.60;;
75554;SDS011;66087;53.126;17.960;2023-04-03T04:18:27;4.40;;;1.10;;
75554;SDS011;66087;53.126;17.960;2023-04-03T04:20:53;9.90;;;1.20;;
75554;SDS011;66087;53.126;17.960;2023-04-03T04:23:21;3.70;;;1.10;;
75554;SDS011;66087;53.126;17.960;2023-04-03T04:25:49;6.40;;;1.30;;
75554;SDS011;66087;53.126;17.960;2023-04-03T04:28:17;6.20;;;1.60;;
75554;SDS011;66087;53.126;17.960;2023-04-03T04:30:44;6.90;;;1.30;;
75554;SDS011;66087;53.126;17.960;2023-04-03T04:33:11;4.20;;;1.00;;
75554;SDS011;66087;53.126;17.960;2023-04-03T04:35:41;5.50;;;1.60;;
75554;SDS011;66087;53.126;17.960;2023-04-03T04:38:09;7.50;;;1.70;;
75554;SDS011;66087;53.126;17.960;2023-04-03T04:40:36;7.80;;;1.60;;
75554;SDS011;66087;53.126;17.960;2023-04-03T04:43:04;6.40;;;1.40;;
75554;SDS011;66087;53.126;17.960;2023-04-03T04:45:31;4.70;;;1.00;;
75554;SDS011;66087;53.126;17.960;2023-04-03T04:47:58;6.80;;;2.30;;
75554;SDS011;66087;53.126;17.960;2023-04-03T04:50:25;5.60;;;1.90;;
75554;SDS011;66087;53.126;17.960;2023-04-03T04:52:53;6.30;;;2.00;;
75554;SDS011;66087;53.126;17.960;2023-04-03T04:55:19;6.10;;;1.80;;
75554;SDS011;66087;53.126;17.960;2023-04-03T04:57:47;7.40;;;1.70;;
75554;SDS011;66087;53.126;17.960;2023-04-03T05:00:13;10.50;;;3.00;;
75554;SDS011;66087;53.126;17.960;2023-04-03T05:02:41;7.60;;;2.60;;
75554;SDS011;66087;53.126;17.960;2023-04-03T05:05:08;7.10;;;2.30;;
75554;SDS011;66087;53.126;17.960;2023-04-03T05:07:35;8.40;;;1.70;;
75554;SDS011;66087;53.126;17.960;2023-04-03T05:10:02;6.60;;;1.90;;
75554;SDS011;66087;53.126;17.960;2023-04-03T05:12:30;9.20;;;2.40;;
75554;SDS011;66087;53.126;17.960;2023-04-03T05:14:59;6.10;;;1.80;;
75554;SDS011;66087;53.126;17.960;2023-04-03T05:17:26;9.40;;;3.40;;
75554;SDS011;66087;53.126;17.960;2023-04-03T05:19:54;11.60;;;4.10;;
75554;SDS011;66087;53.126;17.960;2023-04-03T05:22:22;12.90;;;4.20;;
75554;SDS011;66087;53.126;17.960;2023-04-03T05:24:50;12.50;;;5.30;;
75554;SDS011;66087;53.126;17.960;2023-04-03T05:27:17;13.90;;;5.10;;
75554;SDS011;66087;53.126;17.960;2023-04-03T05:29:46;11.00;;;3.60;;
75554;SDS011;66087;53.126;17.960;2023-04-03T05:32:16;9.80;;;3.10;;
75554;SDS011;66087;53.126;17.960;2023-04-03T05:34:44;8.30;;;2.70;;
75554;SDS011;66087;53.126;17.960;2023-04-03T05:37:11;9.70;;;3.30;;
75554;SDS011;66087;53.126;17.960;2023-04-03T05:39:38;8.40;;;3.00;;
75554;SDS011;66087;53.126;17.960;2023-04-03T05:42:07;8.10;;;2.50;;
75554;SDS011;66087;53.126;17.960;2023-04-03T05:44:34;10.00;;;2.70;;
75554;SDS011;66087;53.126;17.960;2023-04-03T05:47:02;8.00;;;2.20;;
75554;SDS011;66087;53.126;17.960;2023-04-03T05:49:29;11.70;;;3.50;;
75554;SDS011;66087;53.126;17.960;2023-04-03T05:51:56;8.20;;;2.30;;
75554;SDS011;66087;53.126;17.960;2023-04-03T05:54:26;8.80;;;2.60;;
75554;SDS011;66087;53.126;17.960;2023-04-03T05:56:59;11.30;;;3.10;;
75554;SDS011;66087;53.126;17.960;2023-04-03T05:59:26;9.70;;;3.10;;
75554;SDS011;66087;53.126;17.960;2023-04-03T06:01:53;6.90;;;2.40;;
75554;SDS011;66087;53.126;17.960;2023-04-03T06:04:20;5.80;;;1.40;;
75554;SDS011;66087;53.126;17.960;2023-04-03T06:06:49;9.60;;;2.50;;
75554;SDS011;66087;53.126;17.960;2023-04-03T06:09:19;10.50;;;2.10;;
75554;SDS011;66087;53.126;17.960;2023-04-03T06:11:47;9.10;;;2.70;;
75554;SDS011;66087;53.126;17.960;2023-04-03T06:14:14;6.30;;;1.80;;
75554;SDS011;66087;53.126;17.960;2023-04-03T06:16:41;4.50;;;1.30;;
75554;SDS011;66087;53.126;17.960;2023-04-03T06:19:08;5.10;;;1.20;;
75554;SDS011;66087;53.126;17.960;2023-04-03T06:21:37;5.50;;;0.90;;
75554;SDS011;66087;53.126;17.960;2023-04-03T06:24:04;6.70;;;1.80;;
75554;SDS011;66087;53.126;17.960;2023-04-03T06:26:32;3.80;;;1.20;;
75554;SDS011;66087;53.126;17.960;2023-04-03T06:29:00;3.60;;;1.10;;
75554;SDS011;66087;53.126;17.960;2023-04-03T06:31:28;6.00;;;1.20;;
75554;SDS011;66087;53.126;17.960;2023-04-03T06:33:55;4.70;;;0.90;;
75554;SDS011;66087;53.126;17.960;2023-04-03T06:36:22;3.00;;;1.00;;
75554;SDS011;66087;53.126;17.960;2023-04-03T06:38:49;5.00;;;1.20;;
75554;SDS011;66087;53.126;17.960;2023-04-03T06:41:16;3.60;;;1.40;;
75554;SDS011;66087;53.126;17.960;2023-04-03T06:43:43;4.40;;;1.00;;
75554;SDS011;66087;53.126;17.960;2023-04-03T06:46:14;4.00;;;0.90;;
75554;SDS011;66087;53.126;17.960;2023-04-03T06:48:43;3.20;;;1.10;;
75554;SDS011;66087;53.126;17.960;2023-04-03T06:53:55;3.90;;;1.40;;
75554;SDS011;66087;53.126;17.960;2023-04-03T06:56:24;1.40;;;0.50;;
75554;SDS011;66087;53.126;17.960;2023-04-03T06:58:53;3.70;;;1.30;;
75554;SDS011;66087;53.126;17.960;2023-04-03T07:01:21;2.90;;;1.00;;
75554;SDS011;66087;53.126;17.960;2023-04-03T07:03:48;4.30;;;1.10;;
75554;SDS011;66087;53.126;17.960;2023-04-03T07:06:15;3.80;;;1.20;;
75554;SDS011;66087;53.126;17.960;2023-04-03T07:08:44;4.60;;;1.30;;
75554;SDS011;66087;53.126;17.960;2023-04-03T07:11:12;5.90;;;2.00;;
75554;SDS011;66087;53.126;17.960;2023-04-03T07:13:39;5.50;;;2.00;;
75554;SDS011;66087;53.126;17.960;2023-04-03T07:16:07;10.20;;;1.40;;
75554;SDS011;66087;53.126;17.960;2023-04-03T07:18:34;4.70;;;1.50;;
75554;SDS011;66087;53.126;17.960;2023-04-03T07:21:02;4.60;;;1.30;;
75554;SDS011;66087;53.126;17.960;2023-04-03T07:23:29;4.10;;;1.30;;
75554;SDS011;66087;53.126;17.960;2023-04-03T07:25:57;3.70;;;0.80;;
75554;SDS011;66087;53.126;17.960;2023-04-03T07:28:24;3.20;;;1.20;;
75554;SDS011;66087;53.126;17.960;2023-04-03T07:30:51;3.90;;;1.40;;
75554;SDS011;66087;53.126;17.960;2023-04-03T07:33:25;4.70;;;1.40;;
75554;SDS011;66087;53.126;17.960;2023-04-03T07:35:52;3.00;;;1.00;;
75554;SDS011;66087;53.126;17.960;2023-04-03T07:38:19;4.70;;;1.00;;
75554;SDS011;66087;53.126;17.960;2023-04-03T07:40:47;2.00;;;0.80;;
75554;SDS011;66087;53.126;17.960;2023-04-03T07:43:16;2.00;;;1.10;;
75554;SDS011;66087;53.126;17.960;2023-04-03T07:45:48;3.40;;;0.90;;
75554;SDS011;66087;53.126;17.960;2023-04-03T07:48:25;4.30;;;1.50;;
75554;SDS011;66087;53.126;17.960;2023-04-03T07:50:59;4.00;;;1.20;;
75554;SDS011;66087;53.126;17.960;2023-04-03T07:53:27;3.50;;;1.30;;
75554;SDS011;66087;53.126;17.960;2023-04-03T07:55:56;5.10;;;1.00;;
75554;SDS011;66087;53.126;17.960;2023-04-03T07:58:25;3.60;;;1.00;;
75554;SDS011;66087;53.126;17.960;2023-04-03T08:00:53;3.70;;;1.30;;
75554;SDS011;66087;53.126;17.960;2023-04-03T08:03:19;2.60;;;1.10;;
75554;SDS011;66087;53.126;17.960;2023-04-03T08:05:47;2.80;;;0.80;;
75554;SDS011;66087;53.126;17.960;2023-04-03T08:08:17;2.90;;;1.30;;
75554;SDS011;66087;53.126;17.960;2023-04-03T08:10:53;2.70;;;1.00;;
75554;SDS011;66087;53.126;17.960;2023-04-03T08:13:21;2.20;;;0.90;;
75554;SDS011;66087;53.126;17.960;2023-04-03T08:15:47;4.50;;;1.10;;
75554;SDS011;66087;53.126;17.960;2023-04-03T08:18:14;5.00;;;0.90;;
75554;SDS011;66087;53.126;17.960;2023-04-03T08:20:42;2.60;;;1.20;;
75554;SDS011;66087;53.126;17.960;2023-04-03T08:23:09;4.10;;;1.50;;
75554;SDS011;66087;53.126;17.960;2023-04-03T08:25:38;4.10;;;1.00;;
75554;SDS011;66087;53.126;17.960;2023-04-03T08:28:06;2.90;;;0.80;;
75554;SDS011;66087;53.126;17.960;2023-04-03T08:30:33;4.50;;;1.10;;
75554;SDS011;66087;53.126;17.960;2023-04-03T08:33:01;3.30;;;1.00;;
75554;SDS011;66087;53.126;17.960;2023-04-03T08:35:29;3.50;;;1.00;;
75554;SDS011;66087;53.126;17.960;2023-04-03T08:37:56;3.90;;;1.30;;
75554;SDS011;66087;53.126;17.960;2023-04-03T08:40:23;4.40;;;1.60;;
75554;SDS011;66087;53.126;17.960;2023-04-03T08:42:54;2.50;;;1.00;;
75554;SDS011;66087;53.126;17.960;2023-04-03T08:48:24;2.20;;;0.70;;
75554;SDS011;66087;53.126;17.960;2023-04-03T08:50:58;1.80;;;0.70;;
75554;SDS011;66087;53.126;17.960;2023-04-03T08:53:28;2.60;;;0.60;;
75554;SDS011;66087;53.126;17.960;2023-04-03T08:55:58;2.70;;;0.90;;
75554;SDS011;66087;53.126;17.960;2023-04-03T08:58:41;3.20;;;1.40;;
75554;SDS011;66087;53.126;17.960;2023-04-03T09:01:17;4.50;;;1.60;;
75554;SDS011;66087;53.126;17.960;2023-04-03T09:03:47;2.00;;;0.70;;
75554;SDS011;66087;53.126;17.960;2023-04-03T09:06:22;4.50;;;0.70;;
75554;SDS011;66087;53.126;17.960;2023-04-03T09:11:54;3.90;;;0.80;;
75554;SDS011;66087;53.126;17.960;2023-04-03T09:14:38;5.10;;;1.50;;
75554;SDS011;66087;53.126;17.960;2023-04-03T09:17:15;4.20;;;1.60;;
75554;SDS011;66087;53.126;17.960;2023-04-03T09:19:50;4.10;;;1.10;;
75554;SDS011;66087;53.126;17.960;2023-04-03T09:22:25;2.70;;;0.80;;
75554;SDS011;66087;53.126;17.960;2023-04-03T09:24:56;4.00;;;1.30;;
75554;SDS011;66087;53.126;17.960;2023-04-03T09:27:27;3.40;;;1.60;;
75554;SDS011;66087;53.126;17.960;2023-04-03T09:29:55;4.90;;;1.40;;
75554;SDS011;66087;53.126;17.960;2023-04-03T09:32:28;3.00;;;0.80;;
75554;SDS011;66087;53.126;17.960;2023-04-03T09:34:59;4.70;;;1.10;;
75554;SDS011;66087;53.126;17.960;2023-04-03T09:37:34;3.20;;;0.90;;
75554;SDS011;66087;53.126;17.960;2023-04-03T09:40:06;2.40;;;0.90;;
75554;SDS011;66087;53.126;17.960;2023-04-03T09:42:58;3.00;;;0.80;;
75554;SDS011;66087;53.126;17.960;2023-04-03T09:45:28;3.80;;;0.90;;
75554;SDS011;66087;53.126;17.960;2023-04-03T09:48:08;3.00;;;1.00;;
75554;SDS011;66087;53.126;17.960;2023-04-03T09:53:27;3.10;;;0.90;;
75554;SDS011;66087;53.126;17.960;2023-04-03T09:56:04;3.60;;;1.10;;
75554;SDS011;66087;53.126;17.960;2023-04-03T09:58:49;3.70;;;1.30;;
75554;SDS011;66087;53.126;17.960;2023-04-03T10:01:28;2.20;;;0.80;;
75554;SDS011;66087;53.126;17.960;2023-04-03T10:06:38;4.30;;;1.50;;
75554;SDS011;66087;53.126;17.960;2023-04-03T10:12:00;2.80;;;0.80;;
75554;SDS011;66087;53.126;17.960;2023-04-03T10:17:26;4.10;;;1.20;;
75554;SDS011;66087;53.126;17.960;2023-04-03T10:20:25;4.70;;;2.00;;
75554;SDS011;66087;53.126;17.960;2023-04-03T10:28:46;3.80;;;1.20;;
75554;SDS011;66087;53.126;17.960;2023-04-03T10:31:30;3.70;;;1.50;;
75554;SDS011;66087;53.126;17.960;2023-04-03T10:34:06;2.80;;;1.20;;
75554;SDS011;66087;53.126;17.960;2023-04-03T10:36:46;5.60;;;1.10;;
75554;SDS011;66087;53.126;17.960;2023-04-03T10:39:45;5.00;;;1.10;;
75554;SDS011;66087;53.126;17.960;2023-04-03T10:42:26;3.90;;;1.10;;
75554;SDS011;66087;53.126;17.960;2023-04-03T10:45:20;3.40;;;0.90;;
75554;SDS011;66087;53.126;17.960;2023-04-03T10:48:00;1.80;;;0.70;;
75554;SDS011;66087;53.126;17.960;2023-04-03T10:50:58;2.50;;;0.90;;
75554;SDS011;66087;53.126;17.960;2023-04-03T10:59:01;2.50;;;1.10;;
75554;SDS011;66087;53.126;17.960;2023-04-03T11:01:40;3.40;;;1.10;;
75554;SDS011;66087;53.126;17.960;2023-04-03T11:04:10;1.90;;;0.80;;
75554;SDS011;66087;53.126;17.960;2023-04-03T11:06:40;3.90;;;1.30;;
75554;SDS011;66087;53.126;17.960;2023-04-03T11:09:18;4.40;;;1.40;;
75554;SDS011;66087;53.126;17.960;2023-04-03T11:11:51;2.40;;;0.90;;
75554;SDS011;66087;53.126;17.960;2023-04-03T11:14:27;4.50;;;1.40;;
75554;SDS011;66087;53.126;17.960;2023-04-03T11:17:04;4.10;;;1.20;;
75554;SDS011;66087;53.126;17.960;2023-04-03T11:19:45;2.60;;;0.90;;
75554;SDS011;66087;53.126;17.960;2023-04-03T11:22:36;3.40;;;0.90;;
75554;SDS011;66087;53.126;17.960;2023-04-03T11:25:19;2.50;;;0.80;;
75554;SDS011;66087;53.126;17.960;2023-04-03T11:27:57;2.10;;;0.60;;
75554;SDS011;66087;53.126;17.960;2023-04-03T11:30:30;2.60;;;0.70;;
75554;SDS011;66087;53.126;17.960;2023-04-03T11:36:12;1.10;;;0.40;;
75554;SDS011;66087;53.126;17.960;2023-04-03T11:38:47;2.70;;;0.70;;
75554;SDS011;66087;53.126;17.960;2023-04-03T11:41:17;3.60;;;0.90;;
75554;SDS011;66087;53.126;17.960;2023-04-03T11:43:58;2.90;;;0.70;;
75554;SDS011;66087;53.126;17.960;2023-04-03T11:52:07;2.70;;;0.90;;
75554;SDS011;66087;53.126;17.960;2023-04-03T11:54:47;1.90;;;0.90;;
75554;SDS011;66087;53.126;17.960;2023-04-03T12:03:01;4.40;;;1.30;;
75554;SDS011;66087;53.126;17.960;2023-04-03T12:05:29;2.60;;;0.90;;
75554;SDS011;66087;53.126;17.960;2023-04-03T12:11:03;2.60;;;0.60;;
75554;SDS011;66087;53.126;17.960;2023-04-03T12:16:33;5.00;;;1.00;;
75554;SDS011;66087;53.126;17.960;2023-04-03T12:19:32;3.20;;;1.20;;
75554;SDS011;66087;53.126;17.960;2023-04-03T12:22:05;4.20;;;1.10;;
75554;SDS011;66087;53.126;17.960;2023-04-03T12:24:37;4.00;;;1.30;;
75554;SDS011;66087;53.126;17.960;2023-04-03T12:27:15;2.90;;;0.90;;
75554;SDS011;66087;53.126;17.960;2023-04-03T12:35:34;3.60;;;1.30;;
75554;SDS011;66087;53.126;17.960;2023-04-03T12:40:57;2.70;;;0.70;;
75554;SDS011;66087;53.126;17.960;2023-04-03T12:46:42;4.30;;;1.30;;
75554;SDS011;66087;53.126;17.960;2023-04-03T12:49:18;3.50;;;0.70;;
75554;SDS011;66087;53.126;17.960;2023-04-03T12:51:56;2.60;;;1.10;;
75554;SDS011;66087;53.126;17.960;2023-04-03T12:54:32;2.10;;;0.70;;
75554;SDS011;66087;53.126;17.960;2023-04-03T12:57:11;2.50;;;0.70;;
75554;SDS011;66087;53.126;17.960;2023-04-03T12:59:43;2.00;;;1.20;;
75554;SDS011;66087;53.126;17.960;2023-04-03T13:02:20;2.30;;;1.00;;
75554;SDS011;66087;53.126;17.960;2023-04-03T13:04:51;1.60;;;0.70;;
75554;SDS011;66087;53.126;17.960;2023-04-03T13:07:23;2.50;;;0.70;;
75554;SDS011;66087;53.126;17.960;2023-04-03T13:09:55;4.80;;;0.80;;
75554;SDS011;66087;53.126;17.960;2023-04-03T13:12:25;2.30;;;0.90;;
75554;SDS011;66087;53.126;17.960;2023-04-03T13:14:54;3.50;;;0.80;;
75554;SDS011;66087;53.126;17.960;2023-04-03T13:17:24;2.10;;;0.80;;
75554;SDS011;66087;53.126;17.960;2023-04-03T13:19:52;2.40;;;0.70;;
75554;SDS011;66087;53.126;17.960;2023-04-03T13:22:24;2.60;;;1.00;;
75554;SDS011;66087;53.126;17.960;2023-04-03T13:24:56;4.00;;;0.80;;
75554;SDS011;66087;53.126;17.960;2023-04-03T13:27:29;3.90;;;0.80;;
75554;SDS011;66087;53.126;17.960;2023-04-03T13:29:58;3.40;;;1.90;;
75554;SDS011;66087;53.126;17.960;2023-04-03T13:32:29;3.10;;;1.50;;
75554;SDS011;66087;53.126;17.960;2023-04-03T13:34:57;2.00;;;0.80;;
75554;SDS011;66087;53.126;17.960;2023-04-03T13:37:28;2.40;;;0.80;;
75554;SDS011;66087;53.126;17.960;2023-04-03T13:40:03;3.00;;;0.80;;
75554;SDS011;66087;53.126;17.960;2023-04-03T13:42:40;2.30;;;0.80;;
75554;SDS011;66087;53.126;17.960;2023-04-03T13:47:50;2.90;;;0.80;;
75554;SDS011;66087;53.126;17.960;2023-04-03T13:50:24;2.30;;;1.20;;
75554;SDS011;66087;53.126;17.960;2023-04-03T13:52:53;3.50;;;1.80;;
75554;SDS011;66087;53.126;17.960;2023-04-03T13:55:28;3.00;;;1.00;;
75554;SDS011;66087;53.126;17.960;2023-04-03T13:58:00;3.90;;;1.20;;
75554;SDS011;66087;53.126;17.960;2023-04-03T14:00:47;2.70;;;0.80;;
75554;SDS011;66087;53.126;17.960;2023-04-03T14:05:58;2.00;;;0.60;;
75554;SDS011;66087;53.126;17.960;2023-04-03T14:08:26;4.00;;;1.10;;
75554;SDS011;66087;53.126;17.960;2023-04-03T14:10:53;2.20;;;0.70;;
75554;SDS011;66087;53.126;17.960;2023-04-03T14:13:21;3.20;;;1.50;;
75554;SDS011;66087;53.126;17.960;2023-04-03T14:15:48;2.70;;;1.50;;
75554;SDS011;66087;53.126;17.960;2023-04-03T14:18:18;4.70;;;2.70;;
75554;SDS011;66087;53.126;17.960;2023-04-03T14:20:47;3.30;;;1.00;;
75554;SDS011;66087;53.126;17.960;2023-04-03T14:23:15;3.10;;;1.10;;
75554;SDS011;66087;53.126;17.960;2023-04-03T14:25:42;2.90;;;0.90;;
75554;SDS011;66087;53.126;17.960;2023-04-03T14:28:17;2.00;;;0.80;;
75554;SDS011;66087;53.126;17.960;2023-04-03T14:30:47;3.60;;;1.10;;
75554;SDS011;66087;53.126;17.960;2023-04-03T14:33:17;4.00;;;1.10;;
75554;SDS011;66087;53.126;17.960;2023-04-03T14:35:46;3.30;;;1.00;;
75554;SDS011;66087;53.126;17.960;2023-04-03T14:40:52;2.80;;;1.10;;
75554;SDS011;66087;53.126;17.960;2023-04-03T14:43:21;3.40;;;1.20;;
75554;SDS011;66087;53.126;17.960;2023-04-03T14:45:49;3.70;;;1.00;;
75554;SDS011;66087;53.126;17.960;2023-04-03T14:48:18;3.60;;;0.80;;
75554;SDS011;66087;53.126;17.960;2023-04-03T14:50:47;4.30;;;0.90;;
75554;SDS011;66087;53.126;17.960;2023-04-03T14:53:16;3.30;;;0.80;;
75554;SDS011;66087;53.126;17.960;2023-04-03T14:55:45;3.90;;;1.00;;
75554;SDS011;66087;53.126;17.960;2023-04-03T14:58:13;4.30;;;1.60;;
75554;SDS011;66087;53.126;17.960;2023-04-03T15:00:42;4.00;;;1.90;;
75554;SDS011;66087;53.126;17.960;2023-04-03T15:03:14;4.10;;;2.00;;
75554;SDS011;66087;53.126;17.960;2023-04-03T15:05:43;4.70;;;2.30;;
75554;SDS011;66087;53.126;17.960;2023-04-03T15:08:15;5.10;;;1.60;;
75554;SDS011;66087;53.126;17.960;2023-04-03T15:10:47;7.20;;;3.10;;
75554;SDS011;66087;53.126;17.960;2023-04-03T15:13:15;4.30;;;1.10;;
75554;SDS011;66087;53.126;17.960;2023-04-03T15:15:42;3.20;;;1.00;;
75554;SDS011;66087;53.126;17.960;2023-04-03T15:18:10;3.20;;;1.00;;
75554;SDS011;66087;53.126;17.960;2023-04-03T15:20:45;5.20;;;1.10;;
75554;SDS011;66087;53.126;17.960;2023-04-03T15:23:13;4.50;;;1.10;;
75554;SDS011;66087;53.126;17.960;2023-04-03T15:25:42;4.80;;;0.80;;
75554;SDS011;66087;53.126;17.960;2023-04-03T15:28:19;2.70;;;0.80;;
75554;SDS011;66087;53.126;17.960;2023-04-03T15:30:54;5.60;;;1.40;;
75554;SDS011;66087;53.126;17.960;2023-04-03T15:33:21;3.50;;;1.70;;
75554;SDS011;66087;53.126;17.960;2023-04-03T15:35:49;7.10;;;1.90;;
75554;SDS011;66087;53.126;17.960;2023-04-03T15:38:15;4.90;;;1.70;;
75554;SDS011;66087;53.126;17.960;2023-04-03T15:40:42;3.50;;;1.80;;
75554;SDS011;66087;53.126;17.960;2023-04-03T15:43:09;5.80;;;2.20;;
75554;SDS011;66087;53.126;17.960;2023-04-03T15:45:37;4.60;;;0.90;;
75554;SDS011;66087;53.126;17.960;2023-04-03T15:48:04;1.80;;;0.70;;
75554;SDS011;66087;53.126;17.960;2023-04-03T15:50:32;4.00;;;1.40;;
75554;SDS011;66087;53.126;17.960;2023-04-03T15:53:00;3.50;;;1.30;;
75554;SDS011;66087;53.126;17.960;2023-04-03T15:55:28;2.90;;;1.00;;
75554;SDS011;66087;53.126;17.960;2023-04-03T15:57:57;5.80;;;2.10;;
75554;SDS011;66087;53.126;17.960;2023-04-03T16:00:25;4.40;;;1.50;;
75554;SDS011;66087;53.126;17.960;2023-04-03T16:02:53;2.70;;;1.10;;
75554;SDS011;66087;53.126;17.960;2023-04-03T16:05:25;4.90;;;1.20;;
75554;SDS011;66087;53.126;17.960;2023-04-03T16:07:52;4.50;;;1.40;;
75554;SDS011;66087;53.126;17.960;2023-04-03T16:10:20;5.40;;;1.90;;
75554;SDS011;66087;53.126;17.960;2023-04-03T16:12:47;5.00;;;1.70;;
75554;SDS011;66087;53.126;17.960;2023-04-03T16:15:14;4.60;;;1.40;;